createdAt,value
2023-01-18T00:01:09.967Z,55.68
2023-01-18T00:03:39.642Z,55.62
2023-01-18T00:06:10.381Z,55.49
2023-01-18T00:08:40.104Z,55.65
2023-01-18T00:11:10.310Z,55.65
2023-01-18T00:13:38.603Z,55.82
2023-01-18T00:16:09.982Z,55.70
2023-01-18T00:18:38.137Z,55.81
2023-01-18T00:21:08.286Z,55.83
2023-01-18T00:23:36.812Z,55.84
2023-01-18T00:26:07.350Z,55.68
2023-01-18T00:28:35.634Z,55.73
2023-01-18T00:31:12.386Z,55.59
2023-01-18T00:33:43.049Z,55.78
2023-01-18T00:36:11.507Z,55.97
2023-01-18T00:38:39.566Z,56.23
2023-01-18T00:41:07.836Z,56.31
2023-01-18T00:43:41.087Z,56.36
2023-01-18T00:46:12.087Z,56.56
2023-01-18T00:48:41.373Z,56.51
2023-01-18T00:51:10.241Z,56.42
2023-01-18T00:53:39.118Z,56.56
2023-01-18T00:56:08.811Z,56.75
2023-01-18T00:58:37.520Z,56.93
2023-01-18T01:01:06.703Z,57.40
2023-01-18T01:03:50.498Z,56.93
2023-01-18T01:06:38.220Z,56.90
2023-01-18T01:09:06.242Z,57.00
2023-01-18T01:11:34.264Z,57.21
2023-01-18T01:14:19.590Z,57.06
2023-01-18T01:17:04.942Z,57.22
2023-01-18T01:19:51.971Z,57.10
2023-01-18T01:22:37.746Z,56.95
2023-01-18T01:25:24.093Z,57.10
2023-01-18T01:27:53.485Z,56.95
2023-01-18T01:30:21.510Z,56.87
2023-01-18T01:32:49.546Z,56.90
2023-01-18T01:35:19.016Z,56.81
2023-01-18T01:37:47.055Z,57.14
2023-01-18T01:40:15.145Z,57.13
2023-01-18T01:42:43.170Z,57.47
2023-01-18T01:45:11.883Z,57.65
2023-01-18T01:47:42.563Z,58.08
2023-01-18T01:50:18.623Z,58.02
2023-01-18T01:52:48.797Z,57.74
2023-01-18T01:55:22.761Z,57.67
2023-01-18T01:57:56.155Z,57.56
2023-01-18T02:00:25.502Z,57.53
2023-01-18T02:02:56.217Z,57.55
2023-01-18T02:05:25.236Z,57.88
2023-01-18T02:07:55.445Z,57.81
2023-01-18T02:10:23.620Z,57.77
2023-01-18T02:12:54.699Z,58.25
2023-01-18T02:15:24.072Z,57.91
2023-01-18T02:18:12.959Z,57.65
2023-01-18T02:21:17.735Z,57.17
2023-01-18T02:24:37.633Z,57.56
2023-01-18T02:27:10.409Z,57.61
2023-01-18T02:30:11.752Z,57.51
2023-01-18T02:32:56.814Z,57.87
2023-01-18T02:35:35.014Z,58.03
2023-01-18T02:38:10.465Z,57.91
2023-01-18T02:40:50.189Z,57.90
2023-01-18T02:43:39.390Z,58.03
2023-01-18T02:46:34.106Z,57.67
2023-01-18T02:49:06.099Z,58.10
2023-01-18T02:51:34.345Z,58.20
2023-01-18T02:54:04.050Z,58.08
2023-01-18T02:56:36.082Z,58.09
2023-01-18T02:59:08.700Z,57.73
2023-01-18T03:01:42.428Z,57.57
2023-01-18T03:04:15.366Z,57.42
2023-01-18T03:06:48.190Z,57.74
2023-01-18T03:09:18.719Z,57.87
2023-01-18T03:11:57.628Z,57.84
2023-01-18T03:14:38.326Z,58.14
2023-01-18T03:17:17.338Z,58.00
2023-01-18T03:20:06.545Z,58.05
2023-01-18T03:22:56.835Z,58.19
2023-01-18T03:25:29.015Z,58.37
2023-01-18T03:28:17.704Z,58.28
2023-01-18T03:31:05.553Z,58.74
2023-01-18T03:33:47.041Z,58.48
2023-01-18T03:36:21.556Z,58.70
2023-01-18T03:38:54.349Z,58.75
2023-01-18T03:41:25.471Z,58.77
2023-01-18T03:43:58.146Z,58.67
2023-01-18T03:46:29.931Z,58.74
2023-01-18T03:48:59.753Z,58.45
2023-01-18T03:51:39.242Z,58.22
2023-01-18T03:54:15.307Z,58.21
2023-01-18T03:56:49.679Z,58.53
2023-01-18T03:59:18.070Z,58.41
2023-01-18T04:01:48.249Z,58.61
2023-01-18T04:04:17.696Z,58.44
2023-01-18T04:06:45.839Z,58.39
2023-01-18T04:09:13.914Z,58.71
2023-01-18T04:11:41.987Z,58.31
2023-01-18T04:14:10.127Z,58.19
2023-01-18T04:16:38.170Z,58.17
2023-01-18T04:19:07.429Z,58.03
2023-01-18T04:21:38.478Z,57.75
2023-01-18T04:24:07.195Z,58.03
2023-01-18T04:26:35.287Z,57.93
2023-01-18T04:29:03.539Z,58.06
2023-01-18T04:31:31.646Z,58.06
2023-01-18T04:33:59.724Z,58.21
2023-01-18T04:36:28.951Z,59.33
2023-01-18T04:38:58.357Z,58.98
2023-01-18T04:41:26.416Z,58.79
2023-01-18T04:43:54.450Z,58.40
2023-01-18T04:46:22.539Z,58.70
2023-01-18T04:48:52.436Z,58.74
2023-01-18T04:51:20.982Z,58.66
2023-01-18T04:53:49.100Z,58.54
2023-01-18T04:56:18.854Z,58.45
2023-01-18T04:58:47.340Z,59.01
2023-01-18T05:01:17.029Z,59.41
2023-01-18T05:03:45.487Z,59.41
2023-01-18T05:06:15.471Z,59.12
2023-01-18T05:08:44.088Z,58.84
2023-01-18T05:11:13.964Z,58.84
2023-01-18T05:13:44.220Z,59.14
2023-01-18T05:16:16.306Z,59.50
2023-01-18T05:18:44.876Z,59.54
2023-01-18T05:21:12.959Z,59.19
2023-01-18T05:23:41.407Z,59.19
2023-01-18T05:26:15.335Z,59.39
2023-01-18T05:28:45.905Z,59.17
2023-01-18T05:31:14.593Z,58.95
2023-01-18T05:33:42.965Z,59.04
2023-01-18T05:36:11.715Z,58.91
2023-01-18T05:38:39.743Z,59.29
2023-01-18T05:41:07.873Z,59.42
2023-01-18T05:43:36.254Z,59.07
2023-01-18T05:46:06.139Z,59.14
2023-01-18T05:48:34.288Z,59.45
2023-01-18T05:51:07.777Z,59.12
2023-01-18T05:53:36.181Z,58.51
2023-01-18T05:56:06.238Z,58.72
2023-01-18T05:58:34.686Z,59.04
2023-01-18T06:01:02.842Z,58.93
2023-01-18T06:03:32.238Z,59.37
2023-01-18T06:06:00.267Z,59.37
2023-01-18T06:08:28.680Z,58.51
2023-01-18T06:10:58.174Z,58.30
2023-01-18T06:13:28.013Z,58.57
2023-01-18T06:15:56.781Z,58.38
2023-01-18T06:18:25.825Z,58.31
2023-01-18T06:20:56.041Z,58.09
2023-01-18T06:23:24.140Z,58.01
2023-01-18T06:25:52.833Z,58.47
2023-01-18T06:28:22.570Z,58.60
2023-01-18T06:30:52.991Z,58.44
2023-01-18T06:33:21.123Z,58.68
2023-01-18T06:35:49.144Z,58.78
2023-01-18T06:38:18.841Z,59.21
2023-01-18T06:40:46.928Z,58.56
2023-01-18T06:43:16.041Z,59.12
2023-01-18T06:45:44.153Z,58.89
2023-01-18T06:48:12.278Z,58.65
2023-01-18T06:50:40.309Z,58.45
2023-01-18T06:53:08.339Z,58.54
2023-01-18T06:55:37.705Z,58.22
2023-01-18T06:58:05.843Z,58.35
2023-01-18T07:00:34.253Z,58.81
2023-01-18T07:03:02.354Z,59.07
2023-01-18T07:05:31.016Z,58.97
2023-01-18T07:07:59.004Z,58.64
2023-01-18T07:10:27.172Z,58.83
2023-01-18T07:12:56.884Z,58.64
2023-01-18T07:15:25.064Z,58.62
2023-01-18T07:17:53.115Z,58.81
2023-01-18T07:20:21.188Z,58.77
2023-01-18T07:22:52.774Z,58.93
2023-01-18T07:25:21.027Z,59.09
2023-01-18T07:27:49.970Z,59.36
2023-01-18T07:30:20.333Z,58.80
2023-01-18T07:32:50.340Z,58.95
2023-01-18T07:35:20.131Z,58.87
2023-01-18T07:37:50.517Z,58.77
2023-01-18T07:40:20.899Z,58.87
2023-01-18T07:42:49.416Z,58.82
2023-01-18T07:45:18.947Z,58.65
2023-01-18T07:47:47.235Z,58.80
2023-01-18T07:50:16.106Z,58.96
2023-01-18T07:52:44.174Z,58.64
2023-01-18T07:55:12.248Z,58.71
2023-01-18T07:57:40.304Z,59.28
2023-01-18T08:00:10.813Z,59.11
2023-01-18T08:02:43.367Z,59.06
2023-01-18T08:05:11.709Z,58.88
2023-01-18T08:07:40.029Z,58.80
2023-01-18T08:10:08.505Z,58.96
2023-01-18T08:12:36.653Z,58.98
2023-01-18T08:15:05.648Z,58.54
2023-01-18T08:17:47.426Z,58.17
2023-01-18T08:20:16.056Z,58.08
2023-01-18T08:22:44.120Z,57.84
2023-01-18T08:25:12.260Z,57.74
2023-01-18T08:27:40.378Z,57.80
2023-01-18T08:30:10.164Z,57.77
2023-01-18T08:32:38.243Z,57.67
2023-01-18T08:35:08.902Z,57.67
2023-01-18T08:37:36.965Z,57.26
2023-01-18T08:40:05.736Z,57.29
2023-01-18T08:42:33.765Z,57.41
2023-01-18T08:45:01.820Z,57.28
2023-01-18T08:47:29.963Z,57.08
2023-01-18T08:49:59.108Z,56.84
2023-01-18T08:52:54.959Z,57.29
2023-01-18T08:55:23.824Z,57.32
2023-01-18T08:57:55.153Z,56.71
2023-01-18T09:00:26.759Z,56.89
2023-01-18T09:02:55.465Z,56.57
2023-01-18T09:05:24.750Z,56.64
2023-01-18T09:07:56.049Z,56.63
2023-01-18T09:10:24.502Z,56.58
2023-01-18T09:12:53.747Z,56.77
2023-01-18T09:15:22.046Z,56.96
2023-01-18T09:17:50.134Z,56.87
2023-01-18T09:20:19.121Z,56.51
2023-01-18T09:22:48.745Z,56.32
2023-01-18T09:25:18.914Z,56.19
2023-01-18T09:27:47.644Z,56.15
2023-01-18T09:30:17.116Z,56.53
2023-01-18T09:32:45.188Z,56.11
2023-01-18T09:35:18.006Z,55.85
2023-01-18T09:37:46.425Z,55.32
2023-01-18T09:40:22.781Z,55.58
2023-01-18T09:42:52.800Z,55.86
2023-01-18T09:45:29.923Z,56.07
2023-01-18T09:48:03.023Z,51.37
2023-01-18T09:50:32.958Z,51.43
2023-01-18T09:53:11.261Z,48.99
2023-01-18T09:55:51.751Z,47.04
2023-01-18T09:58:37.853Z,45.74
2023-01-18T10:01:09.515Z,45.63
2023-01-18T10:03:48.753Z,44.77
2023-01-18T10:06:21.607Z,44.35
2023-01-18T10:08:55.801Z,43.22
2023-01-18T10:11:31.436Z,42.38
2023-01-18T10:14:09.224Z,42.88
2023-01-18T10:16:38.848Z,41.45
2023-01-18T10:19:16.347Z,40.68
2023-01-18T10:21:53.883Z,41.16
2023-01-18T10:24:32.735Z,40.81
2023-01-18T10:27:14.361Z,41.40
2023-01-18T10:29:58.491Z,40.63
2023-01-18T10:32:28.319Z,40.51
2023-01-18T10:34:56.390Z,40.90
2023-01-18T10:37:33.479Z,38.85
2023-01-18T10:40:03.215Z,39.30
2023-01-18T10:42:40.938Z,38.49
2023-01-18T10:45:17.453Z,37.51
2023-01-18T10:47:45.545Z,38.17
2023-01-18T10:50:15.091Z,36.92
2023-01-18T10:52:43.131Z,37.91
2023-01-18T10:55:16.319Z,37.74
2023-01-18T10:57:50.036Z,37.30
2023-01-18T11:00:23.764Z,37.65
2023-01-18T11:02:54.159Z,37.49
2023-01-18T11:05:28.903Z,37.25
2023-01-18T11:08:14.556Z,37.40
2023-01-18T11:10:43.844Z,36.73
2023-01-18T11:13:27.235Z,35.92
2023-01-18T11:16:06.102Z,34.19
2023-01-18T11:18:34.214Z,37.30
2023-01-18T11:21:02.936Z,38.84
2023-01-18T11:23:35.699Z,39.68
2023-01-18T11:26:09.231Z,41.19
2023-01-18T11:28:45.782Z,41.82
2023-01-18T11:31:15.511Z,41.90
2023-01-18T11:33:51.768Z,41.06
2023-01-18T11:36:21.246Z,40.30
2023-01-18T11:38:49.705Z,39.55
2023-01-18T11:41:20.722Z,39.38
2023-01-18T11:44:01.056Z,39.75
2023-01-18T11:46:40.191Z,38.75
2023-01-18T11:49:17.496Z,38.30
2023-01-18T11:51:51.187Z,37.34
2023-01-18T11:54:29.041Z,36.93
2023-01-18T11:57:02.335Z,36.14
2023-01-18T11:59:34.885Z,36.76
2023-01-18T12:02:39.922Z,36.11
2023-01-18T12:05:37.868Z,36.43
2023-01-18T12:08:29.453Z,36.63
2023-01-18T12:11:17.776Z,36.56
2023-01-18T12:13:59.428Z,36.21
2023-01-18T12:16:49.073Z,36.18
2023-01-18T12:19:34.528Z,36.00
2023-01-18T12:22:26.787Z,36.43
2023-01-18T12:25:06.675Z,36.44
2023-01-18T12:27:43.670Z,36.07
2023-01-18T12:30:29.160Z,35.38
2023-01-18T12:33:13.139Z,35.08
2023-01-18T12:36:07.425Z,35.02
2023-01-18T12:38:36.857Z,35.28
2023-01-18T12:41:34.546Z,35.25
2023-01-18T12:45:00.880Z,35.50
2023-01-18T12:47:36.113Z,35.82
2023-01-18T12:50:13.908Z,36.75
2023-01-18T12:52:47.287Z,36.96
2023-01-18T12:55:21.374Z,36.83
2023-01-18T12:57:52.636Z,35.97
2023-01-18T13:00:26.073Z,36.33
2023-01-18T13:02:57.739Z,36.08
2023-01-18T13:05:35.318Z,35.92
2023-01-18T13:08:09.183Z,36.63
2023-01-18T13:10:38.573Z,36.50
2023-01-18T13:13:07.522Z,36.21
2023-01-18T13:15:43.480Z,36.50
2023-01-18T13:18:17.915Z,36.36
2023-01-18T13:20:58.618Z,35.04
2023-01-18T13:23:37.865Z,35.23
2023-01-18T13:26:17.861Z,35.08
2023-01-18T13:28:46.377Z,35.42
2023-01-18T13:31:14.944Z,35.53
2023-01-18T13:33:45.590Z,35.47
2023-01-18T13:36:19.761Z,35.33
2023-01-18T13:38:53.031Z,35.11
2023-01-18T13:41:24.759Z,34.50
2023-01-18T13:44:05.000Z,34.99
2023-01-18T13:46:36.504Z,35.70
2023-01-18T13:49:36.586Z,36.20
2023-01-18T13:52:30.424Z,36.53
2023-01-18T13:55:04.151Z,36.26
2023-01-18T13:57:34.629Z,36.18
2023-01-18T14:00:03.456Z,35.93
2023-01-18T14:02:41.988Z,36.08
2023-01-18T14:05:25.328Z,37.11
2023-01-18T14:08:00.143Z,37.48
2023-01-18T14:10:31.815Z,37.68
2023-01-18T14:13:02.769Z,38.17
2023-01-18T14:15:47.611Z,38.60
2023-01-18T14:18:21.763Z,39.13
2023-01-18T14:21:22.251Z,39.17
2023-01-18T14:24:15.054Z,40.60
2023-01-18T14:26:44.711Z,41.32
2023-01-18T14:29:17.475Z,43.29
2023-01-18T14:31:49.841Z,44.18
2023-01-18T14:34:37.997Z,46.12
2023-01-18T14:37:26.261Z,46.29
2023-01-18T14:40:07.965Z,46.45
2023-01-18T14:42:39.642Z,46.28
2023-01-18T14:45:08.947Z,46.15
2023-01-18T14:47:39.274Z,46.73
2023-01-18T14:50:17.327Z,47.45
2023-01-18T14:52:45.463Z,47.14
2023-01-18T14:55:27.576Z,47.52
2023-01-18T14:58:12.342Z,47.20
2023-01-18T15:00:47.645Z,47.13
2023-01-18T15:03:23.811Z,48.01
2023-01-18T15:05:58.589Z,47.47
2023-01-18T15:08:28.595Z,47.76
2023-01-18T15:10:59.258Z,48.16
2023-01-18T15:13:30.607Z,48.79
2023-01-18T15:16:01.347Z,48.92
2023-01-18T15:18:30.923Z,48.11
2023-01-18T15:21:01.974Z,48.56
2023-01-18T15:23:31.275Z,48.26
2023-01-18T15:26:00.831Z,48.53
2023-01-18T15:28:33.872Z,48.70
2023-01-18T15:31:07.541Z,48.96
2023-01-18T15:33:39.510Z,49.20
2023-01-18T15:36:09.757Z,48.80
2023-01-18T15:38:38.233Z,49.27
2023-01-18T15:41:11.304Z,48.99
2023-01-18T15:43:43.427Z,48.79
2023-01-18T15:46:14.144Z,49.08
2023-01-18T15:48:58.333Z,49.60
2023-01-18T15:51:41.781Z,49.66
2023-01-18T15:54:19.017Z,50.09
2023-01-18T15:56:54.763Z,50.39
2023-01-18T15:59:34.191Z,49.86
2023-01-18T16:02:16.827Z,50.48
2023-01-18T16:04:45.496Z,50.88
2023-01-18T16:07:36.948Z,50.63
2023-01-18T16:10:28.109Z,50.54
2023-01-18T16:13:34.732Z,51.75
2023-01-18T16:16:22.121Z,51.53
2023-01-18T16:19:04.221Z,51.43
2023-01-18T16:21:41.629Z,52.42
2023-01-18T16:24:28.273Z,51.60
2023-01-18T16:26:58.058Z,51.46
2023-01-18T16:29:27.903Z,51.56
2023-01-18T16:32:33.921Z,51.70
2023-01-18T16:35:06.103Z,51.78
2023-01-18T16:37:34.197Z,51.50
2023-01-18T16:40:02.393Z,52.11
2023-01-18T16:42:38.024Z,52.24
2023-01-18T16:45:15.023Z,52.39
2023-01-18T16:47:44.285Z,52.19
2023-01-18T16:50:15.591Z,52.67
2023-01-18T16:52:43.749Z,52.65
2023-01-18T16:55:13.641Z,52.43
2023-01-18T16:57:42.278Z,52.01
2023-01-18T17:00:18.054Z,52.20
2023-01-18T17:02:46.664Z,52.56
2023-01-18T17:05:20.914Z,52.46
2023-01-18T17:07:50.789Z,52.38
2023-01-18T17:10:32.324Z,52.77
2023-01-18T17:13:01.126Z,52.56
2023-01-18T17:15:33.310Z,52.76
2023-01-18T17:18:02.165Z,52.59
2023-01-18T17:20:32.242Z,52.58
2023-01-18T17:23:01.751Z,52.62
2023-01-18T17:25:30.124Z,52.88
2023-01-18T17:27:59.297Z,52.63
2023-01-18T17:30:27.970Z,52.89
2023-01-18T17:32:57.803Z,53.01
2023-01-18T17:35:27.745Z,52.97
2023-01-18T17:38:01.087Z,53.56
2023-01-18T17:40:40.905Z,54.22
2023-01-18T17:43:15.206Z,53.71
2023-01-18T17:45:51.285Z,53.88
2023-01-18T17:48:30.220Z,53.95
2023-01-18T17:50:58.769Z,54.55
2023-01-18T17:53:27.093Z,55.06
2023-01-18T17:55:55.575Z,55.96
2023-01-18T17:58:23.933Z,56.93
2023-01-18T18:00:52.210Z,57.89
2023-01-18T18:03:20.705Z,57.77
2023-01-18T18:05:50.436Z,58.12
2023-01-18T18:08:19.073Z,58.01
2023-01-18T18:10:47.751Z,57.81
2023-01-18T18:13:16.091Z,58.33
2023-01-18T18:15:46.763Z,57.51
2023-01-18T18:18:23.273Z,57.30
2023-01-18T18:20:58.279Z,57.59
2023-01-18T18:23:27.038Z,57.91
2023-01-18T18:25:55.846Z,58.09
2023-01-18T18:28:24.458Z,58.17
2023-01-18T18:30:53.088Z,57.76
2023-01-18T18:33:22.012Z,58.23
2023-01-18T18:35:51.062Z,58.76
2023-01-18T18:38:23.089Z,59.25
2023-01-18T18:40:52.072Z,58.97
2023-01-18T18:43:20.684Z,58.65
2023-01-18T18:45:48.903Z,58.65
2023-01-18T18:48:16.968Z,58.70
2023-01-18T18:50:46.673Z,58.74
2023-01-18T18:53:14.809Z,59.03
2023-01-18T18:55:44.593Z,59.56
2023-01-18T18:58:12.700Z,59.55
2023-01-18T19:00:40.782Z,59.87
2023-01-18T19:03:09.227Z,59.25
2023-01-18T19:05:37.736Z,59.81
2023-01-18T19:08:06.239Z,60.48
2023-01-18T19:10:34.343Z,61.06
2023-01-18T19:13:04.917Z,60.93
2023-01-18T19:15:33.100Z,60.56
2023-01-18T19:18:01.178Z,61.33
2023-01-18T19:20:29.549Z,61.47
2023-01-18T19:22:58.310Z,61.57
2023-01-18T19:25:26.695Z,61.73
2023-01-18T19:27:54.881Z,61.44
2023-01-18T19:30:24.661Z,61.84
2023-01-18T19:32:53.325Z,61.57
2023-01-18T19:35:21.866Z,61.56
2023-01-18T19:37:50.215Z,61.08
2023-01-18T19:40:18.759Z,61.16
2023-01-18T19:42:56.042Z,61.88
2023-01-18T19:45:28.995Z,62.16
2023-01-18T19:47:58.520Z,62.91
2023-01-18T19:50:27.574Z,63.12
2023-01-18T19:52:55.993Z,63.09
2023-01-18T19:55:25.137Z,62.95
2023-01-18T19:57:56.391Z,63.66
2023-01-18T20:00:25.925Z,63.02
2023-01-18T20:02:54.476Z,63.98
2023-01-18T20:05:22.603Z,63.62
2023-01-18T20:07:51.260Z,64.21
2023-01-18T20:10:20.372Z,64.02
2023-01-18T20:12:49.137Z,64.04
2023-01-18T20:15:18.975Z,64.70
2023-01-18T20:17:48.465Z,64.22
2023-01-18T20:20:24.150Z,64.71
2023-01-18T20:22:59.527Z,64.70
2023-01-18T20:25:27.723Z,65.04
2023-01-18T20:27:55.814Z,65.76
2023-01-18T20:30:23.852Z,66.41
2023-01-18T20:32:53.243Z,66.10
2023-01-18T20:35:21.321Z,65.89
2023-01-18T20:37:49.451Z,65.69
2023-01-18T20:40:17.939Z,65.11
2023-01-18T20:42:46.007Z,65.74
2023-01-18T20:45:14.120Z,65.47
2023-01-18T20:47:42.683Z,65.15
2023-01-18T20:50:12.953Z,65.04
2023-01-18T20:52:40.990Z,64.89
2023-01-18T20:55:12.819Z,65.60
2023-01-18T20:57:40.864Z,65.21
2023-01-18T21:00:12.554Z,65.53
2023-01-18T21:02:41.917Z,65.43
2023-01-18T21:05:10.388Z,65.72
2023-01-18T21:07:41.688Z,65.53
2023-01-18T21:10:11.764Z,65.92
2023-01-18T21:12:41.333Z,65.95
2023-01-18T21:15:10.216Z,66.78
2023-01-18T21:17:39.729Z,66.25
2023-01-18T21:20:08.888Z,66.24
2023-01-18T21:22:37.142Z,65.66
2023-01-18T21:25:07.810Z,65.89
2023-01-18T21:27:36.593Z,65.86
2023-01-18T21:30:05.331Z,65.73
2023-01-18T21:32:33.465Z,65.65
2023-01-18T21:35:01.601Z,65.06
2023-01-18T21:37:29.648Z,65.11
2023-01-18T21:39:58.303Z,64.87
2023-01-18T21:42:45.177Z,65.30
2023-01-18T21:45:31.045Z,65.25
2023-01-18T21:48:06.194Z,64.82
2023-01-18T21:50:51.480Z,64.87
2023-01-18T21:53:37.081Z,64.87
2023-01-18T21:56:05.506Z,64.87
2023-01-18T21:58:52.645Z,65.00
2023-01-18T22:01:22.435Z,65.02
2023-01-18T22:04:09.148Z,65.23
2023-01-18T22:06:37.441Z,65.74
2023-01-18T22:09:06.261Z,65.82
2023-01-18T22:11:34.430Z,66.36
2023-01-18T22:14:05.626Z,65.30
2023-01-18T22:16:34.119Z,65.14
2023-01-18T22:19:03.180Z,65.46
2023-01-18T22:21:31.224Z,65.14
2023-01-18T22:23:59.774Z,65.24
2023-01-18T22:26:29.872Z,65.09
2023-01-18T22:28:58.336Z,65.61
2023-01-18T22:31:28.624Z,65.47
2023-01-18T22:33:57.289Z,65.60
2023-01-18T22:36:25.770Z,65.11
2023-01-18T22:38:54.044Z,65.25
2023-01-18T22:41:24.296Z,65.26
2023-01-18T22:43:52.896Z,65.37
2023-01-18T22:46:22.421Z,65.40
2023-01-18T22:48:52.198Z,65.44
2023-01-18T22:51:22.568Z,65.35
2023-01-18T22:53:51.098Z,65.65
2023-01-18T22:56:22.103Z,65.57
2023-01-18T22:58:51.026Z,65.29
2023-01-18T23:01:25.017Z,65.70
2023-01-18T23:03:57.025Z,65.21
2023-01-18T23:06:25.111Z,65.49
2023-01-18T23:08:54.383Z,65.11
2023-01-18T23:11:24.324Z,65.25
2023-01-18T23:14:13.096Z,65.03
2023-01-18T23:16:59.363Z,64.69
2023-01-18T23:19:30.877Z,65.13
2023-01-18T23:21:59.276Z,65.36
2023-01-18T23:24:28.271Z,64.89
2023-01-18T23:26:56.310Z,65.30
2023-01-18T23:29:24.536Z,65.17
2023-01-18T23:31:52.599Z,64.98
2023-01-18T23:34:20.667Z,65.61
2023-01-18T23:36:51.056Z,65.29
2023-01-18T23:39:36.451Z,65.04
2023-01-18T23:42:22.138Z,64.73
2023-01-18T23:45:07.355Z,64.82
2023-01-18T23:47:53.632Z,64.66
2023-01-18T23:50:38.785Z,64.98
2023-01-18T23:53:30.222Z,64.88
2023-01-18T23:55:58.284Z,64.79
2023-01-18T23:58:26.378Z,64.79
